Time;durP1;ratioP1;P1;durP2;ratioP2;P2;SDS_P1;SDS_P2;PMS_P1;PMS_P2;Temp;Humidity;BMP_temperature;BMP_pressure;BME280_temperature;BME280_humidity;BME280_pressure;Samples;Min_cycle;Max_cycle;Signal;HPM_P1;HPM_P2
2021/08/19 00:01:21;;;;;;;5.55;1.80;;;18.60;99.90;;;;;;5034842;28;20171;-79
2021/08/19 00:03:46;;;;;;;1.55;1.38;;;18.70;99.90;;;;;;5034130;28;20167;-78
2021/08/19 00:06:12;;;;;;;1.75;1.45;;;18.60;99.90;;;;;;5033058;28;20591;-79
2021/08/19 00:08:39;;;;;;;3.42;1.70;;;18.60;99.90;;;;;;5034343;28;20208;-79
2021/08/19 00:11:05;;;;;;;2.60;1.80;;;18.70;99.90;;;;;;5034479;28;20191;-79
2021/08/19 00:13:31;;;;;;;4.03;1.63;;;18.60;99.90;;;;;;5034213;28;20192;-79
2021/08/19 00:15:57;;;;;;;2.63;1.63;;;18.50;99.90;;;;;;5034159;28;20513;-78
2021/08/19 00:18:23;;;;;;;2.40;1.50;;;18.60;99.90;;;;;;5034428;28;20172;-79
2021/08/19 00:20:49;;;;;;;5.07;1.73;;;18.50;99.90;;;;;;5034308;28;20176;-79
2021/08/19 00:23:15;;;;;;;5.88;1.58;;;18.60;99.90;;;;;;5034163;28;20209;-79
2021/08/19 00:25:41;;;;;;;3.00;1.55;;;18.40;99.90;;;;;;5033053;28;20352;-79
2021/08/19 00:28:07;;;;;;;6.97;1.50;;;18.40;99.90;;;;;;5034040;28;20728;-79
2021/08/19 00:30:32;;;;;;;3.65;1.80;;;18.50;99.90;;;;;;5033918;28;20160;-79
2021/08/19 00:32:58;;;;;;;5.10;1.75;;;18.60;99.90;;;;;;5034136;28;20203;-79
2021/08/19 00:35:24;;;;;;;2.47;1.70;;;18.60;99.90;;;;;;5033996;28;20217;-79
2021/08/19 00:37:49;;;;;;;1.75;1.58;;;18.60;99.90;;;;;;5033741;28;20253;-79
2021/08/19 00:40:15;;;;;;;4.30;2.05;;;18.50;99.90;;;;;;5033578;28;20163;-79
2021/08/19 00:42:42;;;;;;;5.35;1.80;;;18.50;99.90;;;;;;5033403;28;20650;-79
2021/08/19 00:45:08;;;;;;;3.78;2.00;;;18.40;99.90;;;;;;5033332;28;20214;-79
2021/08/19 00:47:37;;;;;;;2.55;1.17;;;18.50;99.90;;;;;;5033556;28;20570;-79
2021/08/19 00:50:04;;;;;;;6.32;1.98;;;18.50;99.90;;;;;;5033314;28;20175;-79
2021/08/19 00:52:31;;;;;;;2.83;1.42;;;18.50;99.90;;;;;;5033318;28;20180;-79
2021/08/19 00:54:57;;;;;;;4.85;1.92;;;18.50;99.90;;;;;;5033388;28;20631;-79
2021/08/19 00:57:23;;;;;;;3.95;1.45;;;18.50;99.90;;;;;;5033096;28;20195;-79
2021/08/19 00:59:52;;;;;;;4.43;1.55;;;18.60;99.90;;;;;;5033256;28;20567;-79
2021/08/19 01:02:19;;;;;;;3.00;1.83;;;18.60;99.90;;;;;;5033610;28;20172;-79
2021/08/19 01:04:45;;;;;;;7.57;2.08;;;18.70;99.90;;;;;;5033198;28;20199;-79
2021/08/19 01:07:12;;;;;;;3.47;1.45;;;18.60;99.90;;;;;;5033117;28;20235;-79
2021/08/19 01:09:39;;;;;;;8.23;2.25;;;18.60;99.90;;;;;;5033267;28;20624;-79
2021/08/19 01:12:05;;;;;;;2.78;1.52;;;18.70;99.90;;;;;;5032749;28;20641;-79
2021/08/19 01:14:32;;;;;;;6.45;1.90;;;18.60;99.90;;;;;;5031822;28;20164;-79
2021/08/19 01:17:04;;;;;;;4.15;1.73;;;18.70;99.90;;;;;;5031141;28;20196;-79
2021/08/19 01:19:29;;;;;;;2.33;1.58;;;18.80;99.90;;;;;;5032984;28;20214;-79
2021/08/19 01:21:55;;;;;;;4.10;1.83;;;18.70;99.90;;;;;;5033168;28;20203;-79
2021/08/19 01:24:21;;;;;;;5.90;2.17;;;18.60;99.90;;;;;;5032765;28;20164;-79
2021/08/19 01:26:50;;;;;;;13.20;2.33;;;18.70;99.90;;;;;;5032532;28;20664;-79
2021/08/19 01:29:16;;;;;;;3.35;1.58;;;18.70;99.90;;;;;;5032677;28;20299;-79
2021/08/19 01:32:03;;;;;;;3.22;1.65;;;18.60;99.90;;;;;;5032716;28;20164;-79
2021/08/19 01:34:29;;;;;;;4.82;2.10;;;18.60;99.90;;;;;;5032456;28;20190;-79
2021/08/19 01:36:55;;;;;;;3.03;1.77;;;18.50;99.90;;;;;;5032685;28;20546;-79
2021/08/19 01:39:21;;;;;;;7.43;1.88;;;18.50;99.90;;;;;;5032993;28;20612;-79
2021/08/19 01:41:47;;;;;;;3.65;1.92;;;18.40;99.90;;;;;;5032762;28;20164;-79
2021/08/19 01:44:13;;;;;;;3.70;2.05;;;18.40;99.90;;;;;;5032699;28;20631;-79
2021/08/19 01:46:39;;;;;;;4.38;2.03;;;18.40;99.90;;;;;;5032433;28;20263;-79
2021/08/19 01:49:04;;;;;;;4.50;1.90;;;18.30;99.90;;;;;;5032178;28;20689;-79
2021/08/19 01:51:33;;;;;;;2.80;2.47;;;18.40;99.90;;;;;;5032239;28;20339;-78
2021/08/19 01:53:59;;;;;;;4.68;2.08;;;18.40;99.90;;;;;;5032842;28;20198;-79
2021/08/19 01:56:25;;;;;;;5.47;2.05;;;18.40;99.90;;;;;;5032802;28;20230;-79
2021/08/19 01:58:55;;;;;;;5.63;2.30;;;18.40;99.90;;;;;;5032391;28;20168;-79
2021/08/19 02:01:22;;;;;;;3.25;2.10;;;18.40;99.90;;;;;;5031890;28;20251;-79
2021/08/19 02:03:49;;;;;;;9.23;2.35;;;18.30;99.90;;;;;;5032542;28;20632;-79
2021/08/19 02:06:15;;;;;;;2.55;1.77;;;18.30;99.90;;;;;;5032112;28;20677;-78
2021/08/19 02:08:41;;;;;;;2.22;1.83;;;18.30;99.90;;;;;;5031236;28;20239;-79
2021/08/19 02:11:07;;;;;;;3.55;2.53;;;18.30;99.90;;;;;;5032144;28;20174;-79
2021/08/19 02:13:32;;;;;;;4.97;3.00;;;18.30;99.90;;;;;;5031080;28;20172;-79
2021/08/19 02:15:59;;;;;;;7.43;2.30;;;18.20;99.90;;;;;;5032515;28;20216;-79
2021/08/19 02:18:24;;;;;;;5.32;2.00;;;18.10;99.90;;;;;;5032273;28;20246;-78
2021/08/19 02:20:50;;;;;;;4.15;3.30;;;18.20;99.90;;;;;;5032291;28;20619;-78
2021/08/19 02:23:16;;;;;;;7.10;2.47;;;18.30;99.90;;;;;;5032352;28;20172;-79
2021/08/19 02:25:41;;;;;;;9.23;2.92;;;18.40;99.90;;;;;;5032601;28;20202;-79
2021/08/19 02:28:08;;;;;;;6.00;2.92;;;18.20;99.90;;;;;;5032201;28;20207;-79
2021/08/19 02:30:33;;;;;;;8.07;2.80;;;18.20;99.90;;;;;;5031069;28;20160;-78
2021/08/19 02:33:01;;;;;;;8.73;3.03;;;18.30;99.90;;;;;;5032572;28;20516;-79
2021/08/19 02:35:27;;;;;;;5.75;2.92;;;18.20;99.90;;;;;;5032163;28;20925;-79
2021/08/19 02:37:55;;;;;;;10.20;3.40;;;18.10;99.90;;;;;;5030988;28;20187;-79
2021/08/19 02:40:22;;;;;;;5.05;2.40;;;18.10;99.90;;;;;;5032075;28;20293;-78
2021/08/19 02:42:49;;;;;;;4.97;2.80;;;18.20;99.90;;;;;;5031833;28;20616;-79
2021/08/19 02:45:14;;;;;;;3.40;2.70;;;18.20;99.90;;;;;;5032118;28;20314;-78
2021/08/19 02:47:40;;;;;;;4.38;2.90;;;18.30;99.90;;;;;;5032088;28;20731;-79
2021/08/19 02:50:06;;;;;;;3.92;2.95;;;18.20;99.90;;;;;;5030959;28;20250;-78
2021/08/19 02:52:32;;;;;;;7.32;2.97;;;18.30;99.90;;;;;;5032067;28;20624;-78
2021/08/19 02:54:57;;;;;;;5.88;2.75;;;18.40;99.90;;;;;;5031658;28;20164;-78
2021/08/19 02:57:23;;;;;;;5.43;2.97;;;18.30;99.90;;;;;;5031544;28;20199;-79
2021/08/19 02:59:49;;;;;;;6.07;2.55;;;18.30;99.90;;;;;;5031944;28;20277;-78
2021/08/19 03:02:14;;;;;;;11.85;3.00;;;18.30;99.90;;;;;;5031684;28;20190;-78
2021/08/19 03:04:40;;;;;;;6.40;3.17;;;18.30;99.90;;;;;;5030135;28;20174;-79
2021/08/19 03:07:09;;;;;;;3.90;2.90;;;18.30;99.90;;;;;;5031549;28;20278;-79
2021/08/19 03:09:34;;;;;;;6.20;3.53;;;18.40;99.90;;;;;;5032107;28;20575;-79
2021/08/19 03:12:00;;;;;;;8.75;2.95;;;18.40;99.90;;;;;;5032230;28;20247;-78
2021/08/19 03:14:26;;;;;;;3.38;2.92;;;18.30;99.90;;;;;;5035528;28;20212;-78
2021/08/19 03:16:51;;;;;;;4.18;3.42;;;18.30;99.90;;;;;;5035661;28;20231;-79
2021/08/19 03:19:17;;;;;;;6.65;3.00;;;18.20;99.90;;;;;;5035473;28;20184;-80
2021/08/19 03:21:43;;;;;;;5.95;2.55;;;18.20;99.90;;;;;;5035703;28;20178;-79
2021/08/19 03:24:09;;;;;;;3.20;2.90;;;18.10;99.90;;;;;;5035598;28;20171;-79
2021/08/19 03:26:35;;;;;;;5.88;2.80;;;18.10;99.90;;;;;;5035239;28;20208;-79
2021/08/19 03:29:01;;;;;;;4.25;2.45;;;18.30;99.90;;;;;;5035733;28;20269;-79
2021/08/19 03:31:27;;;;;;;3.85;2.70;;;18.30;99.90;;;;;;5035501;28;20694;-79
2021/08/19 03:33:53;;;;;;;4.18;2.35;;;18.30;99.90;;;;;;5036374;28;20195;-79
2021/08/19 03:36:19;;;;;;;4.35;2.92;;;18.30;99.90;;;;;;5034984;28;20220;-79
2021/08/19 03:38:44;;;;;;;3.67;2.75;;;18.40;99.90;;;;;;5035404;28;20222;-79
2021/08/19 03:41:11;;;;;;;5.68;3.05;;;18.40;99.90;;;;;;5033981;28;20168;-80
2021/08/19 03:43:38;;;;;;;5.22;2.67;;;18.50;99.90;;;;;;5033333;28;20172;-80
2021/08/19 03:46:04;;;;;;;6.57;2.55;;;18.60;99.90;;;;;;5034125;28;20200;-80
2021/08/19 03:48:29;;;;;;;6.05;2.25;;;18.70;99.90;;;;;;5034653;28;20215;-80
2021/08/19 03:50:55;;;;;;;7.20;2.55;;;18.70;99.90;;;;;;5033428;28;20183;-80
2021/08/19 03:53:21;;;;;;;11.48;2.70;;;18.70;99.90;;;;;;5034608;28;20164;-80
2021/08/19 03:55:46;;;;;;;4.00;1.95;;;18.60;99.90;;;;;;5034553;28;20187;-79
2021/08/19 03:58:12;;;;;;;5.40;2.25;;;18.60;99.90;;;;;;5034209;28;20198;-80
2021/08/19 04:00:37;;;;;;;2.92;2.28;;;18.60;99.90;;;;;;5034107;28;20206;-79
2021/08/19 04:03:03;;;;;;;3.83;2.08;;;18.60;99.90;;;;;;5034587;28;20199;-79
2021/08/19 04:05:29;;;;;;;5.88;2.00;;;18.70;99.90;;;;;;5034297;28;20160;-80
2021/08/19 04:07:55;;;;;;;4.13;2.35;;;18.70;99.90;;;;;;5033317;28;20212;-80
2021/08/19 04:10:20;;;;;;;4.53;2.10;;;18.70;99.90;;;;;;5034600;28;20238;-79
2021/08/19 04:12:46;;;;;;;7.97;2.63;;;18.60;99.90;;;;;;5033172;28;20182;-79
2021/08/19 04:15:12;;;;;;;5.35;2.25;;;18.50;99.90;;;;;;5034634;28;20172;-80
2021/08/19 04:17:38;;;;;;;7.43;3.63;;;18.50;99.90;;;;;;5033926;28;20187;-79
2021/08/19 04:20:05;;;;;;;7.45;2.08;;;18.40;99.90;;;;;;5033805;28;20179;-80
2021/08/19 04:22:30;;;;;;;5.90;2.05;;;18.30;99.90;;;;;;5034160;28;20655;-79
2021/08/19 04:24:56;;;;;;;8.27;2.55;;;18.20;99.90;;;;;;5033461;28;20167;-80
2021/08/19 04:27:22;;;;;;;2.67;2.47;;;18.10;99.90;;;;;;5033891;28;20668;-80
2021/08/19 04:29:47;;;;;;;3.20;2.15;;;18.10;99.90;;;;;;5033975;28;20168;-79
2021/08/19 04:32:13;;;;;;;6.03;2.15;;;18.20;99.90;;;;;;5034013;28;20168;-80
2021/08/19 04:34:40;;;;;;;2.90;1.83;;;18.30;99.90;;;;;;5034213;28;20527;-80
2021/08/19 04:37:05;;;;;;;2.78;2.00;;;18.10;99.90;;;;;;5033913;28;20540;-79
2021/08/19 04:39:31;;;;;;;3.80;2.15;;;18.20;99.90;;;;;;5033863;28;20255;-79
2021/08/19 04:41:57;;;;;;;7.40;2.45;;;18.30;99.90;;;;;;5033990;28;20624;-80
2021/08/19 04:44:22;;;;;;;11.80;2.85;;;18.20;99.90;;;;;;5033819;28;20180;-79
2021/08/19 04:46:48;;;;;;;6.28;2.38;;;18.20;99.90;;;;;;5034175;28;20270;-79
2021/08/19 04:49:14;;;;;;;5.63;2.40;;;18.20;99.90;;;;;;5033528;28;20213;-79
2021/08/19 04:51:41;;;;;;;4.68;2.50;;;18.10;99.90;;;;;;5034070;28;20178;-78
2021/08/19 04:54:07;;;;;;;9.88;2.72;;;18.10;99.90;;;;;;5034483;28;20191;-79
2021/08/19 04:56:39;;;;;;;3.83;2.30;;;18.10;99.90;;;;;;5034166;28;20184;-79
2021/08/19 04:59:07;;;;;;;7.30;2.63;;;18.20;99.90;;;;;;5034125;28;20175;-79
2021/08/19 05:01:34;;;;;;;6.10;2.25;;;18.20;99.90;;;;;;5034184;28;20178;-78
2021/08/19 05:04:00;;;;;;;3.78;2.28;;;18.30;99.90;;;;;;5032652;28;20172;-78
2021/08/19 05:06:30;;;;;;;4.03;1.95;;;18.30;99.90;;;;;;5033742;28;20192;-79
2021/08/19 05:08:57;;;;;;;4.28;2.05;;;18.30;99.90;;;;;;5032278;28;20298;-79
2021/08/19 05:11:24;;;;;;;5.85;2.33;;;18.40;99.90;;;;;;5033160;28;20233;-79
2021/08/19 05:13:51;;;;;;;3.17;1.75;;;18.50;99.90;;;;;;5033579;28;20175;-79
2021/08/19 05:16:16;;;;;;;2.40;1.90;;;18.50;99.90;;;;;;5032337;28;20259;-79
2021/08/19 05:18:43;;;;;;;6.40;2.13;;;18.50;99.90;;;;;;5031584;28;20198;-78
2021/08/19 05:21:10;;;;;;;6.72;2.95;;;18.50;99.90;;;;;;5033082;28;20163;-79
2021/08/19 05:23:36;;;;;;;4.07;2.38;;;18.50;99.90;;;;;;5033444;28;20263;-79
2021/08/19 05:26:02;;;;;;;12.00;2.53;;;18.40;99.90;;;;;;5033274;28;20711;-78
2021/08/19 05:28:28;;;;;;;4.50;1.90;;;18.30;99.90;;;;;;5032742;28;20207;-79
2021/08/19 05:30:53;;;;;;;4.63;2.53;;;18.50;99.90;;;;;;5031460;28;20524;-78
2021/08/19 05:33:19;;;;;;;7.90;2.10;;;18.60;99.90;;;;;;5033125;28;20640;-79
2021/08/19 05:35:45;;;;;;;2.80;2.25;;;18.70;99.90;;;;;;5032974;28;20229;-79
2021/08/19 05:38:10;;;;;;;2.40;1.90;;;18.60;99.90;;;;;;5033319;28;20176;-79
2021/08/19 05:40:36;;;;;;;4.93;2.53;;;18.50;99.90;;;;;;5031811;28;20175;-78
2021/08/19 05:43:02;;;;;;;8.75;2.05;;;18.40;99.90;;;;;;5032937;28;20172;-78
2021/08/19 05:45:28;;;;;;;5.32;2.05;;;18.40;99.90;;;;;;5032482;28;20246;-79
2021/08/19 05:47:54;;;;;;;4.25;2.60;;;18.40;99.90;;;;;;5031404;28;20211;-79
2021/08/19 05:50:20;;;;;;;5.30;1.67;;;18.30;99.90;;;;;;5032789;28;20230;-79
2021/08/19 05:52:45;;;;;;;3.50;2.53;;;18.20;99.90;;;;;;5032418;28;20251;-79
2021/08/19 05:55:11;;;;;;;2.63;2.10;;;18.30;99.90;;;;;;5032252;28;20164;-79
2021/08/19 05:57:37;;;;;;;6.78;2.25;;;18.30;99.90;;;;;;5032073;28;20234;-79
2021/08/19 06:00:04;;;;;;;4.85;1.90;;;18.30;99.90;;;;;;5031205;28;20536;-79
2021/08/19 06:02:29;;;;;;;5.28;2.10;;;18.20;99.90;;;;;;5032604;28;20199;-79
2021/08/19 06:04:55;;;;;;;2.25;1.70;;;18.40;99.90;;;;;;5032656;28;20188;-79
2021/08/19 06:07:21;;;;;;;3.03;1.85;;;18.40;99.90;;;;;;5032039;28;20202;-79
2021/08/19 06:09:47;;;;;;;4.25;2.05;;;18.40;99.90;;;;;;5032629;28;20180;-79
2021/08/19 06:12:13;;;;;;;2.45;1.88;;;18.50;99.90;;;;;;5032101;28;20253;-79
2021/08/19 06:14:38;;;;;;;4.00;1.40;;;18.50;99.90;;;;;;5032242;28;20650;-80
2021/08/19 06:17:04;;;;;;;2.65;1.40;;;18.50;99.90;;;;;;5031876;28;20203;-79
2021/08/19 06:19:30;;;;;;;7.30;1.50;;;18.50;99.90;;;;;;5032211;28;20187;-82
2021/08/19 06:21:55;;;;;;;14.48;1.90;;;18.50;99.90;;;;;;5032077;28;20596;-80
2021/08/19 06:24:21;;;;;;;2.58;1.65;;;18.60;99.90;;;;;;5031858;28;20572;-80
2021/08/19 06:26:47;;;;;;;3.15;1.50;;;18.60;99.90;;;;;;5031789;28;20283;-80
2021/08/19 06:29:12;;;;;;;8.88;1.70;;;18.60;99.90;;;;;;5030928;28;20444;-80
2021/08/19 06:31:38;;;;;;;1.60;1.50;;;18.50;99.90;;;;;;5031940;28;20218;-79
2021/08/19 06:34:04;;;;;;;2.53;1.50;;;18.60;99.90;;;;;;5032471;28;20535;-80
2021/08/19 06:36:30;;;;;;;2.97;1.40;;;18.70;99.90;;;;;;5032123;28;20267;-79
2021/08/19 06:38:56;;;;;;;3.22;1.52;;;18.70;99.90;;;;;;5031819;28;20171;-79
2021/08/19 06:41:23;;;;;;;4.88;1.73;;;18.60;99.90;;;;;;5030309;28;20176;-79
2021/08/19 06:43:49;;;;;;;1.42;1.33;;;18.60;99.90;;;;;;5031749;28;20156;-78
2021/08/19 06:46:15;;;;;;;5.80;2.28;;;18.60;99.90;;;;;;5031420;28;20238;-79
2021/08/19 06:48:40;;;;;;;1.65;1.50;;;18.60;99.90;;;;;;5034617;28;20207;-81
2021/08/19 06:51:06;;;;;;;2.67;1.20;;;18.50;99.90;;;;;;5036054;28;20167;-79
2021/08/19 06:53:35;;;;;;;4.90;1.48;;;18.50;99.90;;;;;;5034284;28;20183;-77
2021/08/19 06:56:04;;;;;;;5.10;1.33;;;18.60;99.90;;;;;;5034955;28;20191;-82
2021/08/19 06:58:30;;;;;;;6.25;1.60;;;18.60;99.90;;;;;;5026138;28;20272;-78
2021/08/19 07:00:56;;;;;;;3.05;0.90;;;18.80;99.90;;;;;;5015495;28;20240;-78
2021/08/19 07:03:23;;;;;;;1.95;1.20;;;19.00;99.90;;;;;;5015721;28;20635;-82
2021/08/19 07:05:49;;;;;;;1.00;0.90;;;18.90;99.90;;;;;;5013001;28;20192;-81
2021/08/19 07:08:17;;;;;;;3.10;1.27;;;19.00;99.90;;;;;;5024103;28;20203;-82
2021/08/19 07:10:43;;;;;;;3.70;1.15;;;19.10;99.90;;;;;;5033196;28;20168;-82
2021/08/19 07:13:09;;;;;;;1.77;1.10;;;19.10;99.90;;;;;;5033046;28;20176;-81
2021/08/19 07:15:35;;;;;;;2.35;1.15;;;19.20;99.90;;;;;;5033992;28;20168;-81
2021/08/19 07:18:01;;;;;;;2.53;1.35;;;19.30;99.90;;;;;;5023919;28;20242;-82
2021/08/19 07:20:27;;;;;;;4.40;1.67;;;19.20;99.90;;;;;;5014324;28;20536;-82
2021/08/19 07:22:53;;;;;;;1.70;1.52;;;19.10;99.90;;;;;;5013629;28;20254;-82
2021/08/19 07:25:21;;;;;;;2.55;1.33;;;19.00;99.90;;;;;;5012434;28;20229;-79
2021/08/19 07:27:47;;;;;;;1.58;1.00;;;19.10;99.90;;;;;;5013537;28;20192;-82
2021/08/19 07:30:13;;;;;;;3.25;1.17;;;19.10;99.90;;;;;;5013820;28;20180;-81
2021/08/19 07:32:39;;;;;;;2.03;1.20;;;19.30;99.90;;;;;;5014290;28;20160;-80
2021/08/19 07:35:05;;;;;;;1.55;0.95;;;19.40;99.90;;;;;;5014879;28;20734;-80
2021/08/19 07:37:31;;;;;;;2.05;1.10;;;19.50;99.90;;;;;;5015031;28;20664;-82
2021/08/19 07:39:57;;;;;;;1.50;1.20;;;19.50;99.90;;;;;;5013926;28;20207;-80
2021/08/19 07:42:23;;;;;;;3.10;1.20;;;19.50;99.90;;;;;;5013863;28;20204;-80
2021/08/19 07:44:49;;;;;;;3.67;1.20;;;19.40;99.90;;;;;;5015125;28;20179;-84
2021/08/19 07:47:14;;;;;;;4.85;1.20;;;19.30;99.90;;;;;;5013709;28;20730;-78
2021/08/19 07:49:40;;;;;;;4.18;1.17;;;19.40;99.90;;;;;;5014899;28;20194;-79
2021/08/19 07:52:06;;;;;;;6.10;1.63;;;19.70;99.90;;;;;;5014596;28;20219;-79
2021/08/19 07:54:31;;;;;;;2.90;1.20;;;20.00;99.90;;;;;;5014994;28;20652;-79
2021/08/19 07:56:57;;;;;;;3.33;1.50;;;20.30;99.90;;;;;;5014655;28;20184;-79
2021/08/19 07:59:23;;;;;;;1.55;1.13;;;20.40;99.90;;;;;;5013205;28;20169;-79
2021/08/19 08:01:49;;;;;;;2.42;1.17;;;20.20;99.90;;;;;;5014590;28;20251;-79
2021/08/19 08:04:14;;;;;;;1.30;1.13;;;20.40;99.90;;;;;;5015028;28;20164;-79
2021/08/19 08:06:40;;;;;;;5.68;1.40;;;20.30;99.90;;;;;;5014524;28;20191;-79
2021/08/19 08:09:06;;;;;;;1.35;1.25;;;20.50;99.90;;;;;;5014537;28;20243;-79
2021/08/19 08:11:32;;;;;;;3.10;1.50;;;20.50;99.90;;;;;;5014603;28;20296;-79
2021/08/19 08:13:58;;;;;;;3.38;1.35;;;20.60;99.90;;;;;;5014731;28;20223;-79
2021/08/19 08:16:24;;;;;;;3.50;1.27;;;20.80;99.90;;;;;;5014863;28;20191;-79
2021/08/19 08:18:50;;;;;;;3.63;1.23;;;21.00;99.90;;;;;;5014821;28;20230;-79
2021/08/19 08:21:16;;;;;;;3.92;1.33;;;21.00;99.90;;;;;;5014436;28;20521;-79
2021/08/19 08:23:42;;;;;;;1.65;1.38;;;21.10;99.90;;;;;;5014420;28;20169;-79
2021/08/19 08:26:11;;;;;;;2.20;1.33;;;20.70;99.90;;;;;;5014133;28;20184;-79
2021/08/19 08:28:36;;;;;;;1.83;1.50;;;20.60;99.90;;;;;;5013070;28;20212;-81
2021/08/19 08:31:03;;;;;;;3.47;1.85;;;20.50;99.90;;;;;;5014507;28;20175;-81
2021/08/19 08:33:33;;;;;;;2.90;2.00;;;20.50;99.90;;;;;;5023701;28;20196;-81
2021/08/19 08:35:59;;;;;;;2.10;1.90;;;20.70;99.90;;;;;;5031679;28;20289;-80
2021/08/19 08:38:26;;;;;;;6.35;2.10;;;21.10;99.90;;;;;;5031832;28;20168;-79
2021/08/19 08:40:52;;;;;;;3.75;2.10;;;20.90;99.90;;;;;;5031894;28;20174;-80
2021/08/19 08:43:20;;;;;;;2.10;1.60;;;21.20;99.90;;;;;;5018571;28;20286;-80
2021/08/19 08:45:48;;;;;;;5.32;1.75;;;21.30;99.90;;;;;;5011914;28;20199;-80
2021/08/19 08:48:16;;;;;;;2.22;1.40;;;21.30;99.90;;;;;;5011459;28;20220;-79
2021/08/19 08:50:45;;;;;;;3.72;1.45;;;21.70;99.90;;;;;;5011732;28;20169;-81
2021/08/19 08:53:12;;;;;;;2.85;1.23;;;21.70;99.90;;;;;;5012812;28;20690;-80
2021/08/19 08:55:38;;;;;;;1.58;1.23;;;21.80;99.90;;;;;;5013295;28;20196;-80
2021/08/19 08:58:06;;;;;;;2.35;1.25;;;21.60;99.90;;;;;;5013381;28;20165;-81
2021/08/19 09:00:32;;;;;;;5.20;1.63;;;21.50;99.90;;;;;;5011870;28;20168;-81
2021/08/19 09:02:57;;;;;;;2.28;1.38;;;21.70;99.90;;;;;;5011586;28;20559;-83
2021/08/19 09:05:25;;;;;;;1.40;1.30;;;21.60;99.90;;;;;;5011896;28;20177;-82
2021/08/19 09:07:54;;;;;;;5.25;1.33;;;21.40;99.90;;;;;;5010791;28;20572;-83
2021/08/19 09:10:21;;;;;;;8.55;1.50;;;21.30;99.90;;;;;;5012814;28;20168;-83
2021/08/19 09:12:47;;;;;;;2.38;1.05;;;21.30;99.90;;;;;;5012177;28;20169;-83
2021/08/19 09:15:15;;;;;;;4.53;1.25;;;21.50;99.90;;;;;;5011958;28;20633;-82
2021/08/19 09:17:49;;;;;;;1.45;1.20;;;21.70;99.90;;;;;;5012833;28;20200;-81
2021/08/19 09:20:16;;;;;;;2.10;1.40;;;21.50;99.90;;;;;;5011820;28;20199;-82
2021/08/19 09:22:54;;;;;;;3.08;1.70;;;21.50;99.90;;;;;;5014190;28;20188;-81
2021/08/19 09:25:34;;;;;;;3.72;2.00;;;21.50;99.90;;;;;;5013523;28;20703;-82
2021/08/19 09:28:18;;;;;;;3.55;1.40;;;21.30;99.90;;;;;;5012115;28;20200;-81
2021/08/19 09:31:03;;;;;;;2.72;1.27;;;21.60;99.90;;;;;;5014240;28;20633;-81
2021/08/19 09:33:32;;;;;;;2.80;1.20;;;21.70;99.90;;;;;;5020175;28;20274;-83
2021/08/19 09:36:01;;;;;;;3.35;1.42;;;21.80;99.90;;;;;;5031636;28;20244;-82
2021/08/19 09:38:37;;;;;;;3.33;1.45;;;21.90;99.90;;;;;;5030263;28;20267;-82
2021/08/19 09:41:12;;;;;;;2.47;1.10;;;21.70;99.90;;;;;;5016304;28;20574;-82
2021/08/19 09:43:45;;;;;;;3.08;1.27;;;21.50;99.90;;;;;;5010179;28;20226;-82
2021/08/19 09:46:14;;;;;;;7.28;1.38;;;21.50;99.90;;;;;;5012853;28;20216;-82
2021/08/19 09:48:41;;;;;;;2.10;1.17;;;21.50;99.90;;;;;;5011966;28;20211;-82
2021/08/19 09:51:22;;;;;;;1.70;1.20;;;21.50;99.90;;;;;;5012786;28;20165;-82
2021/08/19 09:53:50;;;;;;;2.45;1.02;;;21.70;99.90;;;;;;5010363;28;20191;-82
2021/08/19 09:56:29;;;;;;;1.80;1.20;;;21.80;99.90;;;;;;5012170;28;20287;-81
2021/08/19 09:59:14;;;;;;;3.08;1.42;;;21.80;99.90;;;;;;5008854;28;20237;-83
2021/08/19 10:01:40;;;;;;;6.15;1.63;;;21.80;99.90;;;;;;5031152;28;20178;-83
2021/08/19 10:04:06;;;;;;;2.08;1.55;;;21.60;99.90;;;;;;5028345;28;20167;-82
2021/08/19 10:06:31;;;;;;;3.90;1.20;;;21.60;99.90;;;;;;5020968;28;20200;-81
2021/08/19 10:08:57;;;;;;;5.40;1.15;;;21.90;99.90;;;;;;5029457;28;20623;-81
2021/08/19 10:11:23;;;;;;;2.20;0.90;;;21.90;99.90;;;;;;5029184;28;20233;-81
2021/08/19 10:13:50;;;;;;;5.25;1.15;;;21.80;99.90;;;;;;5029126;28;20183;-81
2021/08/19 10:16:17;;;;;;;1.30;1.10;;;21.70;99.90;;;;;;5030172;28;20187;-81
2021/08/19 10:18:44;;;;;;;1.10;0.90;;;21.60;99.90;;;;;;5029824;28;20257;-82
2021/08/19 10:21:15;;;;;;;3.05;0.90;;;21.80;99.90;;;;;;5032407;28;20161;-84
2021/08/19 10:23:45;;;;;;;1.92;1.10;;;21.80;99.90;;;;;;5034613;28;20221;-80
2021/08/19 10:26:20;;;;;;;1.95;1.08;;;21.60;99.90;;;;;;5035763;28;20652;-80
2021/08/19 10:28:58;;;;;;;1.08;0.98;;;21.70;99.90;;;;;;5035726;28;20213;-80
2021/08/19 10:31:43;;;;;;;1.20;0.57;;;21.90;99.90;;;;;;5035896;28;20237;-81
2021/08/19 10:34:11;;;;;;;4.78;1.38;;;21.40;99.90;;;;;;5036296;28;20175;-79
2021/08/19 10:36:46;;;;;;;1.05;0.80;;;21.50;99.90;;;;;;5035675;28;20191;-79
2021/08/19 10:39:23;;;;;;;0.55;0.55;;;21.80;99.90;;;;;;5036032;28;20175;-79
2021/08/19 10:41:50;;;;;;;3.55;0.82;;;21.60;99.90;;;;;;5035394;28;20167;-79
2021/08/19 10:44:17;;;;;;;2.38;1.02;;;21.70;99.90;;;;;;5035843;28;20172;-79
2021/08/19 10:46:51;;;;;;;0.70;0.65;;;21.50;99.90;;;;;;5035626;28;20234;-78
2021/08/19 10:49:37;;;;;;;1.52;0.77;;;21.60;99.90;;;;;;5035845;28;20211;-78
2021/08/19 10:52:08;;;;;;;2.88;0.80;;;21.70;99.90;;;;;;5036049;28;20194;-79
2021/08/19 10:54:42;;;;;;;0.80;0.77;;;21.90;99.90;;;;;;5035594;28;20196;-81
2021/08/19 10:57:32;;;;;;;4.53;0.80;;;22.00;99.90;;;;;;5035617;28;20219;-79
2021/08/19 11:00:04;;;;;;;5.07;0.90;;;21.80;99.90;;;;;;5035452;28;20168;-78
2021/08/19 11:02:56;;;;;;;1.08;0.98;;;22.10;99.90;;;;;;5034279;28;20198;-79
2021/08/19 11:05:28;;;;;;;1.88;0.80;;;22.00;99.90;;;;;;5035317;28;20546;-79
2021/08/19 11:07:59;;;;;;;2.20;1.00;;;22.10;99.90;;;;;;5035056;28;20605;-78
2021/08/19 11:10:36;;;;;;;1.58;0.77;;;22.10;99.90;;;;;;5035236;28;20628;-78
2021/08/19 11:13:10;;;;;;;1.30;1.08;;;22.30;99.90;;;;;;5034354;28;20248;-79
2021/08/19 11:15:45;;;;;;;1.58;1.10;;;22.00;99.90;;;;;;5035266;28;20221;-80
2021/08/19 11:18:26;;;;;;;0.80;0.80;;;22.00;99.90;;;;;;5034989;28;20573;-79
2021/08/19 11:20:52;;;;;;;1.67;1.05;;;22.00;99.90;;;;;;5033876;28;20268;-79
2021/08/19 11:23:25;;;;;;;2.45;1.02;;;22.00;99.90;;;;;;5034079;28;20199;-79
2021/08/19 11:25:51;;;;;;;10.85;1.00;;;21.90;99.90;;;;;;5035036;28;20199;-79
2021/08/19 11:28:18;;;;;;;1.30;1.08;;;21.80;99.90;;;;;;5035173;28;20199;-79
2021/08/19 11:30:46;;;;;;;1.38;1.00;;;21.90;99.90;;;;;;5034808;28;20199;-79
2021/08/19 11:33:24;;;;;;;2.88;1.10;;;22.00;99.90;;;;;;5035050;28;20171;-78
2021/08/19 11:35:57;;;;;;;1.30;1.20;;;22.30;99.90;;;;;;5034038;28;20278;-79
2021/08/19 11:38:24;;;;;;;3.50;0.90;;;22.50;99.90;;;;;;5035502;28;20528;-81
2021/08/19 11:40:53;;;;;;;6.65;1.45;;;22.70;99.90;;;;;;5034643;28;20190;-78
2021/08/19 11:43:32;;;;;;;1.30;1.15;;;23.00;99.90;;;;;;5034225;28;20709;-78
2021/08/19 11:46:07;;;;;;;3.75;1.40;;;23.00;99.90;;;;;;5035343;28;20766;-78
2021/08/19 11:48:35;;;;;;;1.55;1.10;;;22.90;99.90;;;;;;5035447;28;20203;-79
2021/08/19 11:51:03;;;;;;;5.53;1.50;;;22.90;99.90;;;;;;5034509;28;20164;-79
2021/08/19 11:53:29;;;;;;;2.20;1.40;;;22.80;99.90;;;;;;5035027;28;20176;-80
2021/08/19 11:55:55;;;;;;;5.22;1.27;;;22.60;99.90;;;;;;5034090;28;20647;-79
2021/08/19 11:58:26;;;;;;;2.42;1.38;;;22.50;99.90;;;;;;5033598;28;20627;-79
2021/08/19 12:00:57;;;;;;;4.72;1.58;;;22.20;99.90;;;;;;5034823;28;20652;-79
2021/08/19 12:03:23;;;;;;;2.88;1.35;;;22.20;99.90;;;;;;5033395;28;20227;-78
2021/08/19 12:06:04;;;;;;;3.63;1.48;;;22.20;99.90;;;;;;5034345;28;20188;-79
2021/08/19 12:08:31;;;;;;;2.75;1.40;;;22.20;99.90;;;;;;5034339;28;20215;-79
2021/08/19 12:10:59;;;;;;;3.05;1.48;;;22.10;99.90;;;;;;5034185;28;20167;-78
2021/08/19 12:13:25;;;;;;;6.82;1.40;;;21.70;99.90;;;;;;5034253;28;20167;-78
2021/08/19 12:15:51;;;;;;;1.70;1.58;;;21.70;99.90;;;;;;5034543;28;20204;-79
2021/08/19 12:18:22;;;;;;;1.67;1.33;;;21.70;99.90;;;;;;5034571;28;20169;-78
2021/08/19 12:20:48;;;;;;;1.95;1.15;;;21.60;99.90;;;;;;5032919;28;20210;-80
2021/08/19 12:23:22;;;;;;;4.32;1.50;;;21.80;99.90;;;;;;5034339;28;20221;-79
2021/08/19 12:25:49;;;;;;;1.70;1.30;;;21.80;99.90;;;;;;5034203;28;20213;-79
2021/08/19 12:28:18;;;;;;;3.03;1.40;;;21.70;99.90;;;;;;5033258;28;20222;-79
2021/08/19 12:30:57;;;;;;;5.05;1.63;;;21.80;99.90;;;;;;5034380;28;20188;-80
2021/08/19 12:33:40;;;;;;;8.52;1.35;;;21.70;99.90;;;;;;5034058;28;20377;-79
2021/08/19 12:36:19;;;;;;;2.25;1.35;;;22.20;99.90;;;;;;5033854;28;20211;-79
2021/08/19 12:38:51;;;;;;;1.60;1.20;;;22.20;99.90;;;;;;5034223;28;20171;-79
2021/08/19 12:41:19;;;;;;;6.07;2.00;;;22.30;99.90;;;;;;5034058;28;20636;-79
2021/08/19 12:44:04;;;;;;;3.63;1.40;;;22.30;99.90;;;;;;5033805;28;20168;-79
2021/08/19 12:46:59;;;;;;;5.13;1.38;;;22.20;99.90;;;;;;5032818;28;20238;-78
2021/08/19 12:49:27;;;;;;;3.38;1.40;;;22.50;99.90;;;;;;5024735;28;20696;-79